Huvudsida
METAR-TAF:

METAR-TAF

Flygplatser :

Alpnach, Schweiz

latitud: 46-56-19N, longitud: 8-17-03E, höjd: 440 m

Aktuellt väderrapport

Denna rapport gjordes för 30 minuter sedan, klockan 23:20 UTC
Vind 5 kt från syd
Temperatur 3°C
Fuktighet 93%
Tryck 1003 hPa
Sikt: 5000 m
Brutna moln på en höjd av 4700 ft

METAR: LSMA 152320Z AUTO 19005KT 5000NDV BKN047 03/02 Q1003 RMK

Tid: 00:50 (23:50 UTC)


TAF: saknas

Aktuella väderrapporter och prognoser från 4000 flygplatser (METAR- och TAF-rapporter).

De tillgängliga stationerna syns som gula och röda prickar på kartan.

För musen över prickarna för att se namnen på stationerna.

Klicka sedan för att få väderrapporter och prognoser.

För att ändra kartan: Klicka på de gröna knapparna med ett svart kors på för att zooma in; den gröna knappen med ett streck på för att zooma ut; eller på de gröna pilarna för angränsande kartor.


METAR-TAF: